createdAt,value
2022-08-25T12:11:12.029Z,2596.00
2022-08-25T12:12:11.053Z,2608.00
2022-08-25T12:13:11.317Z,2596.00
2022-08-25T12:14:11.545Z,2576.00
2022-08-25T12:15:11.908Z,2560.00
2022-08-25T12:16:12.172Z,2540.00
2022-08-25T12:17:12.355Z,2516.00
2022-08-25T12:18:12.925Z,2496.00
2022-08-25T12:19:12.926Z,2476.00
2022-08-25T12:20:13.196Z,2468.00
2022-08-25T12:21:20.991Z,2464.00
2022-08-25T12:22:13.781Z,2464.00
2022-08-25T12:23:14.145Z,2468.00
2022-08-25T12:24:14.362Z,2488.00
2022-08-25T12:25:14.620Z,2464.00
2022-08-25T12:26:14.935Z,2456.00
2022-08-25T12:27:15.160Z,2444.00
2022-08-25T12:28:15.382Z,2452.00
2022-08-25T12:29:15.618Z,2464.00
2022-08-25T12:30:20.676Z,2456.00
2022-08-25T12:31:17.239Z,2472.00
2022-08-25T12:32:16.411Z,2524.00
2022-08-25T12:33:16.755Z,2536.00
2022-08-25T12:34:17.019Z,2496.00
2022-08-25T12:35:17.385Z,2472.00
2022-08-25T12:36:17.577Z,2428.00
2022-08-25T12:37:17.796Z,2384.00
2022-08-25T12:38:18.025Z,2380.00
2022-08-25T12:39:18.394Z,2368.00
2022-08-25T12:40:18.767Z,2364.00
2022-08-25T12:41:18.968Z,2360.00
2022-08-25T12:42:21.987Z,2360.00
2022-08-25T12:43:20.558Z,2352.00
2022-08-25T12:44:19.934Z,2356.00
2022-08-25T12:45:20.096Z,2352.00
2022-08-25T12:46:20.405Z,2348.00
2022-08-25T12:47:23.468Z,2344.00
2022-08-25T12:48:20.886Z,2336.00
2022-08-25T12:49:21.194Z,2336.00
2022-08-25T12:50:21.528Z,2336.00
2022-08-25T12:51:21.781Z,2332.00
2022-08-25T12:52:22.041Z,2332.00
2022-08-25T12:53:23.307Z,2328.00
2022-08-25T12:54:22.822Z,2336.00
2022-08-25T12:55:22.840Z,2340.00
2022-08-25T12:56:23.064Z,2340.00
2022-08-25T12:57:25.086Z,2340.00
2022-08-25T12:58:28.550Z,2356.00
2022-08-25T12:59:25.015Z,2368.00
2022-08-25T13:01:35.445Z,2368.00
2022-08-25T13:02:25.861Z,2336.00
2022-08-25T13:03:25.116Z,2304.00
2022-08-25T13:04:25.358Z,2296.00
2022-08-25T13:05:25.659Z,2284.00
2022-08-25T13:06:25.895Z,2280.00
2022-08-25T13:07:26.112Z,2280.00
2022-08-25T13:08:26.955Z,2272.00
2022-08-25T13:09:27.772Z,2268.00
2022-08-25T13:10:27.013Z,2268.00
2022-08-25T13:11:27.446Z,2260.00
2022-08-25T13:12:27.615Z,2256.00
2022-08-25T13:13:27.911Z,2252.00
2022-08-25T13:14:28.265Z,2244.00
2022-08-25T13:15:28.433Z,2232.00
2022-08-25T13:16:29.823Z,2228.00
2022-08-25T13:17:29.166Z,2224.00
2022-08-25T13:18:29.356Z,2224.00
2022-08-25T13:19:35.095Z,2216.00
2022-08-25T13:20:30.947Z,2212.00
2022-08-25T13:21:30.182Z,2204.00
2022-08-25T13:22:30.519Z,2196.00
2022-08-25T13:23:30.763Z,2188.00
2022-08-25T13:24:31.063Z,2184.00
2022-08-25T13:25:32.921Z,2188.00
2022-08-25T13:26:31.682Z,2184.00
2022-08-25T13:27:31.914Z,2180.00
2022-08-25T13:28:32.174Z,2176.00
2022-08-25T13:29:35.072Z,2176.00
2022-08-25T13:30:33.678Z,2172.00
2022-08-25T13:31:32.948Z,2176.00
2022-08-25T13:32:34.497Z,2160.00
2022-08-25T13:33:33.447Z,2152.00
2022-08-25T13:34:34.754Z,2156.00
2022-08-25T13:35:33.994Z,2160.00
2022-08-25T13:36:34.209Z,2156.00
2022-08-25T13:37:34.575Z,2160.00
2022-08-25T13:38:34.867Z,2156.00
2022-08-25T13:40:04.697Z,2152.00
2022-08-25T13:40:36.557Z,2148.00
2022-08-25T13:41:35.756Z,2140.00
2022-08-25T13:42:35.978Z,2140.00
2022-08-25T13:43:36.251Z,2136.00
2022-08-25T13:44:36.431Z,2132.00
2022-08-25T13:45:41.599Z,2128.00
2022-08-25T13:46:37.936Z,2124.00
2022-08-25T13:47:45.218Z,2120.00
2022-08-25T13:48:38.481Z,2116.00
2022-08-25T13:49:37.749Z,2116.00
2022-08-25T13:50:38.091Z,2108.00
2022-08-25T13:51:38.467Z,2104.00
2022-08-25T13:52:38.633Z,2100.00
2022-08-25T13:53:39.042Z,2096.00
2022-08-25T13:54:40.916Z,2096.00
2022-08-25T13:55:50.647Z,2092.00
2022-08-25T13:56:41.624Z,2088.00
2022-08-25T13:57:40.109Z,2080.00
2022-08-25T13:58:45.522Z,2072.00
2022-08-25T13:59:41.683Z,2068.00
2022-08-25T14:00:43.248Z,2064.00
2022-08-25T14:01:48.765Z,2060.00
2022-08-25T14:02:44.068Z,2052.00
2022-08-25T14:03:41.943Z,2052.00
2022-08-25T14:04:50.602Z,2048.00
2022-08-25T14:05:43.387Z,2040.00
2022-08-25T14:06:42.637Z,2040.00
2022-08-25T14:07:58.794Z,2036.00
2022-08-25T14:08:44.211Z,2032.00
2022-08-25T14:09:46.601Z,2028.00
2022-08-25T14:11:54.757Z,2016.00
2022-08-25T14:12:57.887Z,2012.00
2022-08-25T14:13:55.414Z,2008.00
2022-08-25T14:14:55.715Z,2008.00
2022-08-25T14:15:55.973Z,2004.00
2022-08-25T14:16:57.450Z,2012.00
2022-08-25T14:17:56.518Z,2008.00
2022-08-25T14:18:58.782Z,2008.00
2022-08-25T14:19:57.147Z,2008.00
2022-08-25T14:20:57.489Z,2008.00
2022-08-25T14:21:57.838Z,2004.00
2022-08-25T14:22:58.357Z,2004.00
2022-08-25T14:23:58.494Z,1996.00
2022-08-25T14:24:58.756Z,1988.00
2022-08-25T14:25:59.094Z,1984.00
2022-08-25T14:26:59.425Z,1976.00
2022-08-25T14:28:08.141Z,1972.00
2022-08-25T14:29:01.050Z,1976.00
2022-08-25T14:30:00.329Z,1976.00
2022-08-25T14:31:00.551Z,1972.00
2022-08-25T14:32:00.893Z,1968.00
2022-08-25T14:33:01.152Z,1968.00
2022-08-25T14:34:01.501Z,1964.00
2022-08-25T14:35:07.397Z,1960.00
2022-08-25T14:36:03.047Z,1960.00
2022-08-25T14:37:02.379Z,1964.00
2022-08-25T14:38:02.746Z,1960.00
2022-08-25T14:39:02.991Z,1964.00
2022-08-25T14:40:03.339Z,1964.00
2022-08-25T14:41:03.611Z,1964.00
2022-08-25T14:42:03.929Z,1960.00
2022-08-25T14:43:04.296Z,1956.00
2022-08-25T14:44:04.506Z,1952.00
2022-08-25T14:45:04.775Z,1948.00
2022-08-25T14:46:05.079Z,1948.00
2022-08-25T14:47:05.364Z,1952.00
2022-08-25T14:48:10.583Z,1948.00
2022-08-25T14:49:06.925Z,1940.00
2022-08-25T14:50:06.141Z,1940.00
2022-08-25T14:51:06.444Z,1940.00
2022-08-25T14:52:06.785Z,1936.00
2022-08-25T14:53:07.294Z,1936.00
2022-08-25T14:54:07.443Z,1936.00
2022-08-25T14:55:07.732Z,1932.00
2022-08-25T14:56:09.277Z,1932.00
2022-08-25T14:57:08.936Z,1924.00
2022-08-25T14:58:08.676Z,1920.00
2022-08-25T14:59:09.036Z,1920.00
2022-08-25T15:00:09.335Z,1916.00
2022-08-25T15:01:09.661Z,1916.00
2022-08-25T15:02:09.852Z,1912.00
2022-08-25T15:03:10.193Z,1908.00
2022-08-25T15:04:10.693Z,1900.00
2022-08-25T15:05:10.905Z,1896.00
2022-08-25T15:06:11.361Z,1896.00
2022-08-25T15:07:11.531Z,1892.00
2022-08-25T15:08:12.250Z,1888.00
2022-08-25T15:09:12.114Z,1880.00
2022-08-25T15:10:13.508Z,1880.00
2022-08-25T15:11:12.726Z,1876.00
2022-08-25T15:12:17.819Z,1872.00
2022-08-25T15:13:14.354Z,1868.00
2022-08-25T15:14:13.577Z,1864.00
2022-08-25T15:15:13.906Z,1860.00
2022-08-25T15:16:14.287Z,1860.00
2022-08-25T15:17:15.519Z,1856.00
2022-08-25T15:18:14.860Z,1856.00
2022-08-25T15:19:15.654Z,1848.00
2022-08-25T15:20:15.445Z,1844.00
2022-08-25T15:21:15.609Z,1848.00
2022-08-25T15:22:15.938Z,1840.00
2022-08-25T15:23:16.263Z,1836.00
2022-08-25T15:24:17.471Z,1836.00
2022-08-25T15:25:16.861Z,1836.00
2022-08-25T15:26:17.140Z,1832.00
2022-08-25T15:27:17.489Z,1832.00
2022-08-25T15:28:17.736Z,1828.00
2022-08-25T15:29:17.991Z,1828.00
2022-08-25T15:30:18.482Z,1824.00
2022-08-25T15:31:18.653Z,1820.00
2022-08-25T15:32:18.920Z,1820.00
2022-08-25T15:33:19.314Z,1816.00
2022-08-25T15:34:19.624Z,1820.00
2022-08-25T15:35:19.941Z,1816.00
2022-08-25T15:36:20.735Z,1812.00
2022-08-25T15:37:20.520Z,1812.00
2022-08-25T15:38:20.820Z,1812.00
2022-08-25T15:39:21.146Z,1816.00
2022-08-25T15:40:21.602Z,1804.00
2022-08-25T15:41:21.671Z,1808.00
2022-08-25T15:42:22.984Z,1804.00
2022-08-25T15:43:22.211Z,1800.00
2022-08-25T15:44:26.162Z,1800.00
2022-08-25T15:45:23.825Z,1800.00
2022-08-25T15:46:23.181Z,1800.00
2022-08-25T15:47:23.413Z,1796.00
2022-08-25T15:48:23.763Z,1796.00
2022-08-25T15:49:24.272Z,1792.00
2022-08-25T15:50:26.189Z,1792.00
2022-08-25T15:51:24.553Z,1792.00
2022-08-25T15:52:31.005Z,1792.00
2022-08-25T15:53:26.168Z,1792.00
2022-08-25T15:54:26.526Z,1788.00
2022-08-25T15:55:25.686Z,1788.00
2022-08-25T15:56:26.685Z,1792.00
2022-08-25T15:57:26.175Z,1788.00
2022-08-25T15:58:26.418Z,1784.00
2022-08-25T15:59:26.768Z,1784.00
2022-08-25T16:00:27.019Z,1784.00
2022-08-25T16:01:27.355Z,1784.00
2022-08-25T16:02:27.705Z,1780.00
2022-08-25T16:03:28.002Z,1780.00
2022-08-25T16:04:28.358Z,1776.00
2022-08-25T16:05:28.660Z,1772.00
2022-08-25T16:06:28.972Z,1768.00
2022-08-25T16:07:29.248Z,1764.00
2022-08-25T16:08:29.603Z,1760.00
2022-08-25T16:09:29.857Z,1756.00
2022-08-25T16:10:30.197Z,1752.00
2022-08-25T16:11:30.494Z,1744.00
2022-08-25T16:12:30.770Z,1740.00
2022-08-25T16:13:31.118Z,1736.00
2022-08-25T16:14:31.337Z,1732.00
2022-08-25T16:15:31.671Z,1728.00
2022-08-25T16:16:32.062Z,1724.00
2022-08-25T16:17:32.372Z,1720.00
2022-08-25T16:18:32.705Z,1716.00
2022-08-25T16:19:32.974Z,1712.00
2022-08-25T16:20:33.305Z,1708.00
2022-08-25T16:21:33.630Z,1712.00
2022-08-25T16:22:33.937Z,1704.00
2022-08-25T16:23:34.222Z,1704.00
2022-08-25T16:24:34.523Z,1696.00
2022-08-25T16:25:36.373Z,1696.00
2022-08-25T16:26:35.135Z,1692.00
2022-08-25T16:27:38.629Z,1688.00
2022-08-25T16:28:35.794Z,1684.00
2022-08-25T16:29:36.192Z,1680.00
2022-08-25T16:30:36.335Z,1676.00
2022-08-25T16:31:36.722Z,1668.00
2022-08-25T16:32:37.004Z,1664.00
2022-08-25T16:33:37.401Z,1660.00
2022-08-25T16:34:37.659Z,1660.00
2022-08-25T16:35:37.894Z,1656.00
2022-08-25T16:36:38.242Z,1648.00
2022-08-25T16:37:38.568Z,1648.00
2022-08-25T16:38:38.877Z,1640.00
2022-08-25T16:39:40.022Z,1636.00
2022-08-25T16:40:39.503Z,1632.00
2022-08-25T16:41:39.796Z,1628.00
2022-08-25T16:42:40.045Z,1624.00
2022-08-25T16:43:40.418Z,1620.00
2022-08-25T16:44:40.714Z,1612.00
2022-08-25T16:45:41.054Z,1608.00
2022-08-25T16:46:41.410Z,1596.00
2022-08-25T16:47:42.676Z,1592.00
2022-08-25T16:48:42.049Z,1584.00
2022-08-25T16:49:42.352Z,1580.00
2022-08-25T16:50:42.618Z,1572.00
2022-08-25T16:51:42.945Z,1564.00
2022-08-25T16:52:44.300Z,1556.00
2022-08-25T16:53:43.564Z,1544.00
2022-08-25T16:54:43.841Z,1536.00
2022-08-25T16:55:44.146Z,1528.00
2022-08-25T16:56:44.465Z,1520.00
2022-08-25T16:57:44.810Z,1512.00
2022-08-25T16:58:45.790Z,1500.00
2022-08-25T16:59:45.458Z,1496.00
2022-08-25T17:00:45.857Z,1484.00
2022-08-25T17:01:46.171Z,1476.00
2022-08-25T17:02:46.543Z,1464.00
2022-08-25T17:03:46.822Z,1456.00
2022-08-25T17:04:47.151Z,1440.00
2022-08-25T17:05:47.504Z,1432.00
2022-08-25T17:06:51.803Z,1420.00
2022-08-25T17:07:48.100Z,1408.00
2022-08-25T17:08:48.342Z,1400.00
2022-08-25T17:09:48.570Z,1392.00
2022-08-25T17:10:48.907Z,1384.00
2022-08-25T17:11:49.171Z,1376.00
2022-08-25T17:12:49.495Z,1364.00
2022-08-25T17:13:50.094Z,1356.00
2022-08-25T17:14:50.093Z,1340.00
2022-08-25T17:15:52.151Z,1316.00
2022-08-25T17:16:50.796Z,1292.00
2022-08-25T17:17:51.052Z,1276.00
2022-08-25T17:18:51.432Z,1240.00
2022-08-25T17:19:54.731Z,1216.00
2022-08-25T17:20:51.853Z,1208.00
2022-08-25T17:21:52.188Z,1212.00
2022-08-25T17:22:52.513Z,1208.00
2022-08-25T17:23:52.906Z,1188.00
2022-08-25T17:25:00.677Z,1176.00
2022-08-25T17:25:54.370Z,1160.00
2022-08-25T17:26:53.638Z,1144.00
2022-08-25T17:27:53.914Z,1132.00
2022-08-25T17:28:54.285Z,1120.00
2022-08-25T17:29:54.577Z,1108.00
2022-08-25T17:30:54.852Z,1088.00
2022-08-25T17:31:55.175Z,1060.00
2022-08-25T17:32:55.508Z,1032.00
2022-08-25T17:33:55.837Z,1012.00
2022-08-25T17:34:56.166Z,1000.00
2022-08-25T17:35:56.442Z,1000.00
2022-08-25T17:36:56.757Z,996.00
2022-08-25T17:37:57.096Z,988.00
2022-08-25T17:38:57.435Z,980.00
2022-08-25T17:40:03.255Z,968.00
2022-08-25T17:40:58.920Z,960.00
2022-08-25T17:41:58.209Z,940.00
2022-08-25T17:42:58.547Z,928.00
2022-08-25T17:43:58.801Z,912.00
2022-08-25T17:44:59.077Z,884.00
2022-08-25T17:45:59.454Z,868.00
2022-08-25T17:46:59.757Z,852.00
2022-08-25T17:47:59.963Z,836.00
2022-08-25T17:49:00.297Z,812.00
2022-08-25T17:50:00.594Z,792.00
2022-08-25T17:51:00.915Z,772.00
2022-08-25T17:52:01.171Z,740.00
2022-08-25T17:53:01.486Z,712.00
2022-08-25T17:54:01.800Z,680.00
2022-08-25T17:55:02.080Z,644.00
2022-08-25T17:56:02.414Z,612.00
2022-08-25T17:57:02.692Z,588.00
2022-08-25T17:58:03.070Z,568.00
2022-08-25T17:59:03.282Z,556.00
2022-08-25T18:00:03.503Z,548.00
2022-08-25T18:01:03.790Z,532.00
2022-08-25T18:02:04.129Z,516.00
2022-08-25T18:03:04.428Z,500.00
2022-08-25T18:04:04.884Z,472.00
2022-08-25T18:05:05.012Z,444.00
2022-08-25T18:06:05.427Z,424.00
2022-08-25T18:07:05.556Z,404.00
2022-08-25T18:08:10.581Z,384.00
2022-08-25T18:09:07.225Z,360.00
2022-08-25T18:10:06.406Z,340.00
2022-08-25T18:11:06.723Z,324.00
2022-08-25T18:12:07.037Z,304.00
2022-08-25T18:13:07.314Z,288.00
2022-08-25T18:14:07.672Z,272.00
2022-08-25T18:15:08.196Z,260.00
2022-08-25T18:16:08.205Z,244.00
2022-08-25T18:17:08.539Z,232.00
2022-08-25T18:18:08.956Z,220.00
2022-08-25T18:19:09.691Z,204.00
2022-08-25T18:20:10.405Z,192.00
2022-08-25T18:21:09.726Z,180.00
2022-08-25T18:22:10.036Z,168.00
2022-08-25T18:23:10.378Z,160.00
2022-08-25T18:24:10.617Z,148.00
2022-08-25T18:25:10.889Z,140.00
2022-08-25T18:26:12.905Z,128.00
2022-08-25T18:27:11.441Z,116.00
2022-08-25T18:28:11.781Z,128.00
2022-08-25T18:29:12.122Z,120.00
2022-08-25T18:30:12.300Z,112.00
2022-08-25T18:31:13.204Z,104.00
2022-08-25T18:32:12.998Z,96.00
2022-08-25T18:33:13.211Z,88.00
2022-08-25T18:34:13.755Z,84.00
2022-08-25T18:35:13.826Z,80.00
2022-08-25T18:36:14.157Z,72.00
2022-08-25T18:37:14.513Z,68.00
2022-08-25T18:38:14.785Z,64.00
2022-08-25T18:39:15.156Z,56.00
2022-08-25T18:40:15.556Z,52.00
2022-08-25T18:41:15.703Z,48.00
2022-08-25T18:42:16.033Z,48.00
2022-08-25T18:43:16.366Z,44.00
2022-08-25T18:44:16.663Z,40.00
2022-08-25T18:45:16.942Z,36.00
2022-08-25T18:46:17.292Z,36.00
2022-08-25T18:47:18.511Z,32.00
2022-08-25T18:48:17.838Z,32.00
2022-08-25T18:49:18.112Z,24.00
2022-08-25T18:50:18.393Z,24.00
2022-08-25T18:51:18.707Z,24.00
2022-08-25T18:52:19.037Z,24.00
2022-08-25T18:53:19.318Z,24.00
2022-08-25T18:54:22.976Z,20.00
2022-08-25T18:55:19.866Z,24.00
2022-08-25T18:56:20.271Z,20.00
2022-08-25T18:57:20.405Z,20.00
2022-08-25T18:58:20.736Z,16.00
2022-08-25T18:59:23.295Z,20.00
2022-08-25T19:00:21.304Z,20.00
2022-08-25T19:01:21.725Z,20.00
2022-08-25T19:02:21.956Z,16.00
2022-08-25T19:03:22.208Z,16.00
2022-08-25T19:04:28.631Z,16.00
2022-08-25T19:05:23.786Z,16.00
2022-08-25T19:06:23.130Z,16.00
2022-08-25T19:07:23.593Z,16.00
2022-08-25T19:08:23.721Z,16.00
2022-08-25T19:09:23.987Z,16.00
2022-08-25T19:10:24.866Z,16.00
2022-08-25T19:11:24.609Z,16.00
2022-08-25T19:12:24.881Z,20.00
2022-08-25T19:13:25.165Z,16.00
2022-08-25T19:14:26.452Z,16.00
2022-08-25T19:15:25.729Z,16.00
2022-08-25T19:16:26.089Z,20.00
2022-08-25T19:17:26.315Z,20.00
2022-08-25T19:18:28.997Z,20.00
2022-08-25T19:19:26.785Z,20.00
2022-08-25T19:20:27.130Z,16.00
2022-08-25T19:21:27.440Z,16.00
2022-08-25T19:22:41.045Z,20.00
2022-08-25T19:23:29.033Z,20.00
2022-08-25T19:24:28.374Z,16.00
2022-08-25T19:25:33.220Z,0.00
2022-08-25T19:26:29.955Z,0.00
2022-08-25T19:27:29.307Z,0.00
2022-08-25T19:28:29.618Z,0.00
2022-08-25T19:29:30.434Z,0.00
2022-08-25T19:30:30.153Z,0.00
2022-08-25T19:31:33.322Z,0.00
2022-08-25T19:32:30.744Z,0.00
2022-08-25T19:33:42.597Z,0.00
2022-08-25T19:34:32.303Z,0.00
2022-08-25T19:35:32.007Z,0.00
2022-08-25T19:36:31.744Z,0.00
2022-08-25T19:37:32.013Z,0.00
2022-08-25T19:38:33.631Z,0.00
2022-08-25T19:39:32.585Z,0.00
2022-08-25T19:40:32.949Z,0.00
2022-08-25T19:41:33.171Z,0.00
2022-08-25T19:42:38.133Z,0.00
2022-08-25T19:43:34.737Z,0.00
2022-08-25T19:44:34.070Z,0.00
2022-08-25T19:45:34.380Z,0.00
2022-08-25T19:46:35.325Z,0.00
2022-08-25T19:47:34.910Z,0.00
2022-08-25T19:48:35.180Z,0.00
2022-08-25T19:49:36.838Z,0.00
2022-08-25T19:50:35.748Z,0.00
2022-08-25T19:51:35.998Z,0.00
2022-08-25T19:52:36.350Z,0.00
2022-08-25T19:53:36.660Z,0.00
2022-08-25T19:54:36.897Z,0.00
2022-08-25T19:55:37.212Z,0.00
2022-08-25T19:56:37.533Z,0.00
2022-08-25T19:57:42.465Z,0.00
2022-08-25T19:58:38.103Z,0.00
2022-08-25T19:59:43.196Z,0.00
2022-08-25T20:00:39.583Z,0.00
2022-08-25T20:01:38.991Z,0.00
2022-08-25T20:02:39.345Z,0.00
2022-08-25T20:03:39.542Z,0.00
2022-08-25T20:04:39.853Z,0.00
2022-08-25T20:05:40.164Z,0.00
2022-08-25T20:06:40.402Z,0.00
2022-08-25T20:07:40.740Z,0.00
2022-08-25T20:08:40.941Z,0.00
2022-08-25T20:09:41.253Z,0.00
2022-08-25T20:10:41.878Z,0.00
2022-08-25T20:11:41.819Z,0.00
2022-08-25T20:12:42.172Z,0.00
2022-08-25T20:13:42.435Z,0.00
2022-08-25T20:14:42.741Z,0.00
2022-08-25T20:15:43.952Z,0.00
2022-08-25T20:16:43.394Z,0.00
2022-08-25T20:17:43.676Z,0.00
2022-08-25T20:18:43.906Z,0.00
2022-08-25T20:19:44.184Z,0.00
2022-08-25T20:20:44.530Z,0.00
2022-08-25T20:21:44.814Z,0.00
2022-08-25T20:22:45.124Z,0.00
2022-08-25T20:23:45.383Z,0.00
2022-08-25T20:24:56.225Z,0.00
2022-08-25T20:25:46.945Z,0.00
2022-08-25T20:26:46.245Z,0.00
2022-08-25T20:27:46.548Z,0.00
2022-08-25T20:28:46.861Z,0.00
2022-08-25T20:29:47.159Z,0.00
2022-08-25T20:30:47.523Z,0.00
2022-08-25T20:31:47.797Z,0.00
2022-08-25T20:32:48.076Z,0.00
2022-08-25T20:33:48.398Z,0.00
2022-08-25T20:34:48.753Z,0.00
2022-08-25T20:35:49.002Z,0.00
2022-08-25T20:36:49.878Z,0.00
2022-08-25T20:37:49.568Z,0.00
2022-08-25T20:38:49.866Z,0.00
2022-08-25T20:39:50.233Z,0.00
2022-08-25T20:40:50.513Z,0.00
2022-08-25T20:41:50.812Z,0.00
2022-08-25T20:42:51.082Z,0.00
2022-08-25T20:43:51.361Z,0.00
2022-08-25T20:44:51.619Z,0.00
2022-08-25T20:45:51.970Z,0.00
2022-08-25T20:46:52.202Z,0.00
2022-08-25T20:47:52.543Z,0.00
2022-08-25T20:48:52.809Z,0.00
2022-08-25T20:49:53.060Z,0.00
2022-08-25T20:50:57.326Z,0.00
2022-08-25T20:51:53.614Z,0.00
2022-08-25T20:52:53.924Z,0.00
2022-08-25T20:53:54.191Z,0.00
2022-08-25T20:54:54.481Z,0.00
2022-08-25T20:55:54.769Z,0.00
2022-08-25T20:56:55.080Z,0.00
2022-08-25T20:57:55.401Z,0.00
2022-08-25T20:58:55.641Z,0.00
2022-08-25T20:59:55.930Z,0.00
2022-08-25T21:00:56.253Z,0.00
2022-08-25T21:01:56.706Z,0.00
2022-08-25T21:02:56.893Z,0.00
2022-08-25T21:03:57.032Z,0.00
2022-08-25T21:04:57.305Z,0.00
2022-08-25T21:05:57.582Z,0.00
2022-08-25T21:06:57.883Z,0.00
2022-08-25T21:07:58.142Z,0.00
2022-08-25T21:08:58.436Z,0.00
2022-08-25T21:09:58.682Z,0.00
2022-08-25T21:10:58.965Z,0.00
2022-08-25T21:11:59.256Z,0.00
2022-08-25T21:12:59.566Z,0.00
2022-08-25T21:13:59.817Z,0.00
2022-08-25T21:15:00.088Z,0.00
2022-08-25T21:16:00.365Z,0.00
2022-08-25T21:17:00.760Z,0.00
2022-08-25T21:18:01.012Z,0.00
2022-08-25T21:19:01.264Z,0.00
2022-08-25T21:20:01.604Z,0.00
2022-08-25T21:21:01.873Z,0.00
2022-08-25T21:22:02.212Z,0.00
2022-08-25T21:23:02.523Z,0.00
2022-08-25T21:24:04.342Z,0.00
2022-08-25T21:25:03.094Z,0.00
2022-08-25T21:26:03.334Z,0.00
2022-08-25T21:27:03.645Z,0.00
2022-08-25T21:28:03.914Z,0.00
2022-08-25T21:29:04.211Z,0.00
2022-08-25T21:30:04.466Z,0.00
2022-08-25T21:31:04.846Z,0.00
2022-08-25T21:32:05.026Z,0.00
2022-08-25T21:33:05.436Z,0.00
2022-08-25T21:34:05.630Z,0.00
2022-08-25T21:35:07.696Z,0.00
2022-08-25T21:36:06.146Z,0.00
2022-08-25T21:37:06.481Z,0.00
2022-08-25T21:38:06.854Z,0.00
2022-08-25T21:39:07.109Z,0.00
2022-08-25T21:40:08.736Z,0.00
2022-08-25T21:41:07.707Z,0.00
2022-08-25T21:42:08.093Z,0.00
2022-08-25T21:43:08.453Z,0.00
2022-08-25T21:44:08.488Z,0.00
2022-08-25T21:45:11.352Z,0.00
2022-08-25T21:46:09.056Z,0.00
2022-08-25T21:47:09.345Z,0.00
2022-08-25T21:48:09.652Z,0.00
2022-08-25T21:49:09.905Z,0.00
2022-08-25T21:50:10.209Z,0.00
2022-08-25T21:51:10.499Z,0.00
2022-08-25T21:52:10.789Z,0.00
2022-08-25T21:53:11.319Z,0.00
2022-08-25T21:54:11.427Z,0.00
2022-08-25T21:55:16.111Z,0.00
2022-08-25T21:56:12.003Z,0.00
2022-08-25T21:57:12.312Z,0.00
2022-08-25T21:58:12.618Z,0.00
2022-08-25T21:59:12.898Z,0.00
2022-08-25T22:00:13.180Z,0.00
2022-08-25T22:01:13.491Z,0.00
2022-08-25T22:02:13.801Z,0.00
2022-08-25T22:03:14.060Z,0.00
2022-08-25T22:04:14.371Z,0.00
2022-08-25T22:05:15.403Z,0.00
2022-08-25T22:06:14.910Z,0.00
2022-08-25T22:07:15.231Z,0.00
2022-08-25T22:08:15.542Z,0.00
2022-08-25T22:09:15.856Z,0.00
2022-08-25T22:10:17.680Z,0.00
2022-08-25T22:11:16.473Z,0.00
2022-08-25T22:12:16.765Z,0.00
2022-08-25T22:13:17.056Z,0.00
2022-08-25T22:14:17.277Z,0.00
2022-08-25T22:15:17.883Z,0.00
2022-08-25T22:16:17.853Z,0.00
2022-08-25T22:17:21.023Z,0.00
2022-08-25T22:18:18.383Z,0.00
2022-08-25T22:19:18.686Z,0.00
2022-08-25T22:20:18.986Z,0.00
2022-08-25T22:21:19.273Z,0.00
2022-08-25T22:22:20.959Z,0.00
2022-08-25T22:23:20.603Z,0.00
2022-08-25T22:24:20.196Z,0.00
2022-08-25T22:25:20.492Z,0.00
2022-08-25T22:26:22.089Z,0.00
2022-08-25T22:27:21.035Z,0.00
2022-08-25T22:28:21.315Z,0.00
2022-08-25T22:29:25.765Z,0.00
2022-08-25T22:30:21.854Z,0.00
2022-08-25T22:31:22.192Z,0.00
2022-08-25T22:32:22.444Z,0.00
2022-08-25T22:33:22.748Z,0.00
2022-08-25T22:34:30.742Z,0.00
2022-08-25T22:35:24.267Z,0.00
2022-08-25T22:36:23.575Z,0.00
2022-08-25T22:37:23.837Z,0.00
2022-08-25T22:38:24.189Z,0.00
2022-08-25T22:39:24.450Z,0.00
2022-08-25T22:40:24.747Z,0.00
2022-08-25T22:41:25.139Z,0.00
2022-08-25T22:42:25.675Z,0.00
2022-08-25T22:43:25.660Z,0.00
2022-08-25T22:44:25.910Z,0.00
2022-08-25T22:45:26.211Z,0.00
2022-08-25T22:46:26.510Z,0.00
2022-08-25T22:47:26.734Z,0.00
2022-08-25T22:48:27.037Z,0.00
2022-08-25T22:49:27.371Z,0.00
2022-08-25T22:50:27.681Z,0.00
2022-08-25T22:51:27.979Z,0.00
2022-08-25T22:52:33.215Z,0.00
2022-08-25T22:53:29.520Z,0.00
2022-08-25T22:54:28.752Z,0.00
2022-08-25T22:55:29.070Z,0.00
2022-08-25T22:56:29.358Z,0.00
2022-08-25T22:57:29.655Z,0.00
2022-08-25T22:58:29.949Z,0.00
2022-08-25T22:59:30.258Z,0.00
2022-08-25T23:00:30.539Z,0.00
2022-08-25T23:01:30.843Z,0.00
2022-08-25T23:02:31.143Z,0.00
2022-08-25T23:03:31.447Z,0.00
2022-08-25T23:04:31.775Z,0.00
2022-08-25T23:05:32.029Z,0.00
2022-08-25T23:06:32.321Z,0.00
2022-08-25T23:07:32.624Z,0.00
2022-08-25T23:08:40.657Z,0.00
2022-08-25T23:09:34.172Z,0.00
2022-08-25T23:10:33.464Z,0.00
2022-08-25T23:11:33.745Z,0.00
2022-08-25T23:12:34.042Z,0.00
2022-08-25T23:13:34.786Z,0.00
2022-08-25T23:14:34.647Z,0.00
2022-08-25T23:15:34.935Z,0.00
2022-08-25T23:16:35.256Z,0.00
2022-08-25T23:17:35.432Z,0.00
2022-08-25T23:18:35.725Z,0.00
2022-08-25T23:19:36.022Z,0.00
2022-08-25T23:20:36.323Z,0.00
2022-08-25T23:21:40.965Z,0.00
2022-08-25T23:22:36.833Z,0.00
2022-08-25T23:23:37.141Z,0.00
2022-08-25T23:24:37.434Z,0.00
2022-08-25T23:25:38.685Z,0.00
2022-08-25T23:26:37.983Z,0.00
2022-08-25T23:27:38.304Z,0.00
2022-08-25T23:28:38.603Z,0.00
2022-08-25T23:29:38.903Z,0.00
2022-08-25T23:30:39.184Z,0.00
2022-08-25T23:31:39.539Z,0.00
2022-08-25T23:32:39.794Z,0.00
2022-08-25T23:33:40.087Z,0.00
2022-08-25T23:34:40.394Z,0.00
2022-08-25T23:35:40.688Z,0.00
2022-08-25T23:36:40.979Z,0.00
2022-08-25T23:37:41.265Z,0.00
2022-08-25T23:38:41.555Z,0.00
2022-08-25T23:39:41.921Z,0.00
2022-08-25T23:40:42.185Z,0.00
2022-08-25T23:41:42.475Z,0.00
2022-08-25T23:42:42.748Z,0.00
2022-08-25T23:43:43.050Z,0.00
2022-08-25T23:44:43.339Z,0.00
2022-08-25T23:45:43.637Z,0.00
2022-08-25T23:46:43.875Z,0.00
2022-08-25T23:47:44.151Z,0.00
2022-08-25T23:48:44.440Z,0.00
2022-08-25T23:49:44.750Z,0.00
2022-08-25T23:50:45.010Z,0.00
2022-08-25T23:51:45.238Z,0.00
2022-08-25T23:52:45.517Z,0.00
2022-08-25T23:53:45.857Z,0.00
2022-08-25T23:54:46.137Z,0.00
2022-08-25T23:55:51.621Z,0.00
2022-08-25T23:56:52.451Z,0.00
2022-08-25T23:57:51.586Z,0.00
2022-08-25T23:58:47.238Z,0.00
2022-08-25T23:59:47.548Z,0.00
